Seafalcon — 9HA2814 — position and weather

sailwx.info

Track history (hours):
 
Tides and Currents Weather Stations Pressure Air Temp Water Temp Dewpoint Dewpoint Depression Visibility Wind Speed Wind Dir Waves Ship Positions

Seafalcon

Last reported at 2015-May-03 06:25 UTC. Time now 2015-May-03 22:56 UTC.
Position N 41°15' E 029°08'.

Length 250 m; draft 12.8 m.

Type: Ship (hazmat cat A). MMSI: 256078000.

Date/timePositionNaut miles runAvg speedWind from/ knotsBaromVisibWave heightAir tempDewpointWater temp
2015-May-03 06:25N 41°15' E 029°08'19 1.9
2015-May-02 20:33N 41°30' E 029°24'0 0.1
2015-May-02 18:15N 41°29' E 029°24'7 9.3
2015-May-02 17:31N 41°30' E 029°32'31612.7
2015-May-01 16:31N 43°54' E 035°56'1613.2
2015-May-01 15:17N 44°01' E 036°16'5013.3
2015-May-01 11:32N 44°24' E 037°18'1212.7
2015-May-01 10:33N 44°30' E 037°34'9 9.1
2015-May-01 09:33N 44°36' E 037°42'1 0.7
2015-May-01 08:33N 44°37' E 037°43'6 6.0
2015-May-01 07:33N 44°35' E 037°50'3 2.8
2015-May-01 06:32N 44°35' E 037°54'0 0.0
2015-May-01 05:32N 44°35' E 037°54'0 0.1
2015-May-01 04:32N 44°35' E 037°54'0 0.0
2015-May-01 03:32N 44°35' E 037°54'0 0.1
2015-May-01 02:32N 44°35' E 037°54'0 0.0
2015-May-01 01:29N 44°35' E 037°54'0 0.0
2015-May-01 00:32N 44°35' E 037°54'0 0.1
2015-Apr-30 23:32N 44°34' E 037°54'0 0.1
2015-Apr-30 22:32N 44°34' E 037°54'0 0.0
2015-Apr-30 21:32N 44°34' E 037°54'0 0.0
2015-Apr-30 20:32N 44°34' E 037°54'0 0.0
2015-Apr-30 19:32N 44°34' E 037°54'0 0.0
2015-Apr-30 18:32N 44°34' E 037°54'0 0.0
2015-Apr-30 17:32N 44°34' E 037°54'0 0.0
2015-Apr-30 16:32N 44°34' E 037°54'0 0.0
2015-Apr-30 15:32N 44°34' E 037°54'0 0.0
2015-Apr-30 14:32N 44°34' E 037°54'0 0.0
2015-Apr-30 13:32N 44°34' E 037°54'0 0.0
2015-Apr-30 12:32N 44°34' E 037°54'0 0.1
2015-Apr-30 11:32N 44°35' E 037°54'0 0.0
2015-Apr-30 10:32N 44°35' E 037°54'0 0.1
2015-Apr-30 09:32N 44°34' E 037°54'0 0.1
2015-Apr-30 08:32N 44°34' E 037°54'0 0.0
2015-Apr-30 07:32N 44°34' E 037°54'0 0.2
2015-Apr-30 06:33N 44°34' E 037°54'5 5.4
2015-Apr-30 05:33N 44°35' E 037°46'3 2.6
2015-Apr-30 04:33N 44°36' E 037°43'0 0.4
2015-Apr-30 03:33N 44°36' E 037°43'1 0.5
2015-Apr-30 02:33N 44°36' E 037°43'1 0.7
2015-Apr-30 01:33N 44°37' E 037°44'3 2.6
2015-Apr-30 00:33N 44°37' E 037°40'0 0.1
2015-Apr-29 18:05N 44°37' E 037°39'0 0.0
2015-Apr-29 16:23N 44°37' E 037°40'0 0.0
2015-Apr-29 15:23N 44°37' E 037°40'0 0.0
2015-Apr-29 14:32N 44°37' E 037°40'0 0.0
2015-Apr-29 13:26N 44°37' E 037°40'0 0.0
2015-Apr-29 12:23N 44°37' E 037°40'0 0.0
2015-Apr-29 11:32N 44°37' E 037°40'0 0.1
2015-Apr-29 10:32N 44°37' E 037°40'0 0.0
2015-Apr-29 09:33N 44°37' E 037°40'3 2.5
2015-Apr-29 08:33N 44°35' E 037°40'5 5.1
2015-Apr-29 07:33N 44°35' E 037°47'4 4.2
2015-Apr-29 06:32N 44°35' E 037°53'0 0.1
2015-Apr-29 05:32N 44°35' E 037°53'0 0.1
2015-Apr-29 04:29N 44°35' E 037°53'0 0.1
2015-Apr-29 03:29N 44°35' E 037°53'0 0.0
2015-Apr-29 02:32N 44°35' E 037°53'0 0.1
2015-Apr-29 01:32N 44°35' E 037°53'0 0.1
2015-Apr-29 00:32N 44°36' E 037°53'0 0.0
2015-Apr-28 23:32N 44°36' E 037°53'0 0.2
2015-Apr-28 22:32N 44°35' E 037°53'0 0.1
2015-Apr-28 21:32N 44°35' E 037°53'0 0.0
2015-Apr-28 20:32N 44°35' E 037°53'0 0.1
2015-Apr-28 19:32N 44°36' E 037°53'0 0.1
2015-Apr-28 18:32N 44°36' E 037°53'0 0.1
2015-Apr-28 17:29N 44°36' E 037°53'0 0.0
2015-Apr-28 16:32N 44°36' E 037°53'0 0.0
2015-Apr-28 15:32N 44°36' E 037°53'0 0.0
2015-Apr-28 14:32N 44°36' E 037°53'0 0.0
2015-Apr-28 13:32N 44°36' E 037°53'0 0.0
2015-Apr-28 12:32N 44°36' E 037°53'0 0.0
2015-Apr-28 11:32N 44°36' E 037°53'1 0.9
2015-Apr-28 10:33N 44°36' E 037°51'5 5.1
2015-Apr-28 09:33N 44°37' E 037°44'1 0.8
2015-Apr-28 08:33N 44°37' E 037°43'0 0.4
2015-Apr-28 07:33N 44°37' E 037°43'0 0.2
2015-Apr-28 06:33N 44°37' E 037°43'0 0.2
2015-Apr-28 05:33N 44°37' E 037°43'2 2.4
2015-Apr-28 04:33N 44°35' E 037°42'8 7.8
2015-Apr-28 03:33N 44°28' E 037°37'1110.8
2015-Apr-28 02:33N 44°22' E 037°24'1110.8
2015-Apr-28 01:33N 44°17' E 037°11'1110.9
2015-Apr-28 00:33N 44°12' E 036°57'1111.1
2015-Apr-27 23:34N 44°07' E 036°44'1111.0
2015-Apr-27 22:33N 44°02' E 036°30'1111.1
2015-Apr-27 21:32N 43°57' E 036°16'1111.2
2015-Apr-27 20:33N 43°53' E 036°02'1111.3
2015-Apr-27 19:33N 43°49' E 035°48'1111.2
2015-Apr-27 18:33N 43°44' E 035°33'1111.2
2015-Apr-27 17:33N 43°40' E 035°19'1111.1
2015-Apr-27 16:33N 43°36' E 035°05'1111.3
2015-Apr-27 15:33N 43°31' E 034°50'1111.4
2015-Apr-27 14:33N 43°27' E 034°36'1211.4
2015-Apr-27 13:30N 43°22' E 034°21'24811.1
2015-Apr-26 15:16N 41°28' E 029°23'911.1
2015-Apr-26 14:26N 41°21' E 029°15'  
Track history (hours):
 
Tides and Currents Weather Stations Pressure Air Temp Water Temp Dewpoint Dewpoint Depression Visibility Wind Speed Wind Dir Waves Ship Positions

Seafalcon

Last reported at 2015-May-03 06:25 UTC. Time now 2015-May-03 22:56 UTC.
Position N 41°15' E 029°08'.

Length 250 m; draft 12.8 m.

Type: Ship (hazmat cat A). MMSI: 256078000.

Date/timePositionNaut miles runAvg speedWind from/ knotsBaromVisibWave heightAir tempDewpointWater temp
2015-May-03 06:25N 41°15' E 029°08'19 1.9
2015-May-02 20:33N 41°30' E 029°24'0 0.1
2015-May-02 18:15N 41°29' E 029°24'7 9.3
2015-May-02 17:31N 41°30' E 029°32'31612.7
2015-May-01 16:31N 43°54' E 035°56'1613.2
2015-May-01 15:17N 44°01' E 036°16'5013.3
2015-May-01 11:32N 44°24' E 037°18'1212.7
2015-May-01 10:33N 44°30' E 037°34'9 9.1
2015-May-01 09:33N 44°36' E 037°42'1 0.7
2015-May-01 08:33N 44°37' E 037°43'6 6.0
2015-May-01 07:33N 44°35' E 037°50'3 2.8
2015-May-01 06:32N 44°35' E 037°54'0 0.0
2015-May-01 05:32N 44°35' E 037°54'0 0.1
2015-May-01 04:32N 44°35' E 037°54'0 0.0
2015-May-01 03:32N 44°35' E 037°54'0 0.1
2015-May-01 02:32N 44°35' E 037°54'0 0.0
2015-May-01 01:29N 44°35' E 037°54'0 0.0
2015-May-01 00:32N 44°35' E 037°54'0 0.1
2015-Apr-30 23:32N 44°34' E 037°54'0 0.1
2015-Apr-30 22:32N 44°34' E 037°54'0 0.0
2015-Apr-30 21:32N 44°34' E 037°54'0 0.0
2015-Apr-30 20:32N 44°34' E 037°54'0 0.0
2015-Apr-30 19:32N 44°34' E 037°54'0 0.0
2015-Apr-30 18:32N 44°34' E 037°54'0 0.0
2015-Apr-30 17:32N 44°34' E 037°54'0 0.0
2015-Apr-30 16:32N 44°34' E 037°54'0 0.0
2015-Apr-30 15:32N 44°34' E 037°54'0 0.0
2015-Apr-30 14:32N 44°34' E 037°54'0 0.0
2015-Apr-30 13:32N 44°34' E 037°54'0 0.0
2015-Apr-30 12:32N 44°34' E 037°54'0 0.1
2015-Apr-30 11:32N 44°35' E 037°54'0 0.0
2015-Apr-30 10:32N 44°35' E 037°54'0 0.1
2015-Apr-30 09:32N 44°34' E 037°54'0 0.1
2015-Apr-30 08:32N 44°34' E 037°54'0 0.0
2015-Apr-30 07:32N 44°34' E 037°54'0 0.2
2015-Apr-30 06:33N 44°34' E 037°54'5 5.4
2015-Apr-30 05:33N 44°35' E 037°46'3 2.6
2015-Apr-30 04:33N 44°36' E 037°43'0 0.4
2015-Apr-30 03:33N 44°36' E 037°43'1 0.5
2015-Apr-30 02:33N 44°36' E 037°43'1 0.7
2015-Apr-30 01:33N 44°37' E 037°44'3 2.6
2015-Apr-30 00:33N 44°37' E 037°40'0 0.1
2015-Apr-29 18:05N 44°37' E 037°39'0 0.0
2015-Apr-29 16:23N 44°37' E 037°40'0 0.0
2015-Apr-29 15:23N 44°37' E 037°40'0 0.0
2015-Apr-29 14:32N 44°37' E 037°40'0 0.0
2015-Apr-29 13:26N 44°37' E 037°40'0 0.0
2015-Apr-29 12:23N 44°37' E 037°40'0 0.0
2015-Apr-29 11:32N 44°37' E 037°40'0 0.1
2015-Apr-29 10:32N 44°37' E 037°40'0 0.0
2015-Apr-29 09:33N 44°37' E 037°40'3 2.5
2015-Apr-29 08:33N 44°35' E 037°40'5 5.1
2015-Apr-29 07:33N 44°35' E 037°47'4 4.2
2015-Apr-29 06:32N 44°35' E 037°53'0 0.1
2015-Apr-29 05:32N 44°35' E 037°53'0 0.1
2015-Apr-29 04:29N 44°35' E 037°53'0 0.1
2015-Apr-29 03:29N 44°35' E 037°53'0 0.0
2015-Apr-29 02:32N 44°35' E 037°53'0 0.1
2015-Apr-29 01:32N 44°35' E 037°53'0 0.1
2015-Apr-29 00:32N 44°36' E 037°53'0 0.0
2015-Apr-28 23:32N 44°36' E 037°53'0 0.2
2015-Apr-28 22:32N 44°35' E 037°53'0 0.1
2015-Apr-28 21:32N 44°35' E 037°53'0 0.0
2015-Apr-28 20:32N 44°35' E 037°53'0 0.1
2015-Apr-28 19:32N 44°36' E 037°53'0 0.1
2015-Apr-28 18:32N 44°36' E 037°53'0 0.1
2015-Apr-28 17:29N 44°36' E 037°53'0 0.0
2015-Apr-28 16:32N 44°36' E 037°53'0 0.0
2015-Apr-28 15:32N 44°36' E 037°53'0 0.0
2015-Apr-28 14:32N 44°36' E 037°53'0 0.0
2015-Apr-28 13:32N 44°36' E 037°53'0 0.0
2015-Apr-28 12:32N 44°36' E 037°53'0 0.0
2015-Apr-28 11:32N 44°36' E 037°53'1 0.9
2015-Apr-28 10:33N 44°36' E 037°51'5 5.1
2015-Apr-28 09:33N 44°37' E 037°44'1 0.8
2015-Apr-28 08:33N 44°37' E 037°43'0 0.4
2015-Apr-28 07:33N 44°37' E 037°43'0 0.2
2015-Apr-28 06:33N 44°37' E 037°43'0 0.2
2015-Apr-28 05:33N 44°37' E 037°43'2 2.4
2015-Apr-28 04:33N 44°35' E 037°42'8 7.8
2015-Apr-28 03:33N 44°28' E 037°37'1110.8
2015-Apr-28 02:33N 44°22' E 037°24'1110.8
2015-Apr-28 01:33N 44°17' E 037°11'1110.9
2015-Apr-28 00:33N 44°12' E 036°57'1111.1
2015-Apr-27 23:34N 44°07' E 036°44'1111.0
2015-Apr-27 22:33N 44°02' E 036°30'1111.1
2015-Apr-27 21:32N 43°57' E 036°16'1111.2
2015-Apr-27 20:33N 43°53' E 036°02'1111.3
2015-Apr-27 19:33N 43°49' E 035°48'1111.2
2015-Apr-27 18:33N 43°44' E 035°33'1111.2
2015-Apr-27 17:33N 43°40' E 035°19'1111.1
2015-Apr-27 16:33N 43°36' E 035°05'1111.3
2015-Apr-27 15:33N 43°31' E 034°50'1111.4
2015-Apr-27 14:33N 43°27' E 034°36'1211.4
2015-Apr-27 13:30N 43°22' E 034°21'24811.1
2015-Apr-26 15:16N 41°28' E 029°23'911.1
2015-Apr-26 14:26N 41°21' E 029°15'  

Dump ship's entire track history